Aviation Digital Data Service (ADDS)

Output produced by METARs form (2156 UTC 29 May 2020)
found at http://www.aviationweather.gov/metar/data/
 
Forecast for: ZSHC (HANGZHOU/JIANQIA, CN)
Text: TAF ZSHC 291507Z 2918/3018 07004MPS 3000 -SHRA BR SCT009 BKN020 TX24/3006Z TN19/2921Z
Forecast period: 1800 UTC 29 May 2020 to 1800 UTC 30 May 2020
Forecast type: FROM: standard forecast or significant change
Winds: from the ENE (70 degrees) at 9 MPH (8 knots; 4.1 m/s)
Visibility: 1.86 miles (2.99 km)
Ceiling: 2000 feet AGL
Clouds: scattered clouds at 900 feet AGL
broken clouds at 2000 feet AGL
Weather: -SHRA BR  (light rain showers, mist)
Text: TEMPO 2918/2924 SHRA
Forecast period: 1800 UTC 29 May 2020 to 0000 UTC 30 May 2020
Forecast type: TEMPORARY: The following changes expected for less than half the time period
Visibility: missing
Ceiling: unknown
Clouds: missing
Weather: SHRA  (rain showers)